sensor_id;sensor_type;location;lat;lon;timestamp;pressure;altitude;pressure_sealevel;temperature;humidity
49311;BME280;35177;45.900;5.946;2022-08-01T00:01:44;97662.69;;;17.99;100.00
49311;BME280;35177;45.900;5.946;2022-08-01T00:04:10;97658.50;;;17.77;100.00
49311;BME280;35177;45.900;5.946;2022-08-01T00:06:35;97664.53;;;17.47;100.00
49311;BME280;35177;45.900;5.946;2022-08-01T00:09:01;97661.47;;;17.68;100.00
49311;BME280;35177;45.900;5.946;2022-08-01T00:11:26;97652.16;;;17.64;100.00
49311;BME280;35177;45.900;5.946;2022-08-01T00:13:52;97659.72;;;17.31;100.00
49311;BME280;35177;45.900;5.946;2022-08-01T00:16:18;97657.53;;;17.25;100.00
49311;BME280;35177;45.900;5.946;2022-08-01T00:18:43;97660.81;;;17.27;100.00
49311;BME280;35177;45.900;5.946;2022-08-01T00:21:09;97661.84;;;17.50;100.00
49311;BME280;35177;45.900;5.946;2022-08-01T00:23:34;97660.00;;;17.42;100.00
49311;BME280;35177;45.900;5.946;2022-08-01T00:26:00;97658.84;;;17.43;100.00
49311;BME280;35177;45.900;5.946;2022-08-01T00:28:26;97663.91;;;17.54;100.00
49311;BME280;35177;45.900;5.946;2022-08-01T00:30:51;97659.47;;;17.37;100.00
49311;BME280;35177;45.900;5.946;2022-08-01T00:33:17;97660.63;;;17.36;100.00
49311;BME280;35177;45.900;5.946;2022-08-01T00:35:43;97661.25;;;17.29;100.00
49311;BME280;35177;45.900;5.946;2022-08-01T00:38:08;97667.94;;;16.96;100.00
49311;BME280;35177;45.900;5.946;2022-08-01T00:40:34;97668.03;;;16.99;100.00
49311;BME280;35177;45.900;5.946;2022-08-01T00:42:59;97675.00;;;16.65;100.00
49311;BME280;35177;45.900;5.946;2022-08-01T00:45:25;97672.59;;;16.51;100.00
49311;BME280;35177;45.900;5.946;2022-08-01T00:47:50;97667.53;;;16.57;100.00
49311;BME280;35177;45.900;5.946;2022-08-01T00:50:16;97660.78;;;16.58;100.00
49311;BME280;35177;45.900;5.946;2022-08-01T00:52:42;97666.00;;;16.72;100.00
49311;BME280;35177;45.900;5.946;2022-08-01T00:55:10;97665.72;;;16.89;100.00
49311;BME280;35177;45.900;5.946;2022-08-01T00:57:38;97667.25;;;16.86;100.00
49311;BME280;35177;45.900;5.946;2022-08-01T01:00:06;97675.06;;;16.40;100.00
49311;BME280;35177;45.900;5.946;2022-08-01T01:02:32;97665.47;;;16.53;100.00
49311;BME280;35177;45.900;5.946;2022-08-01T01:04:57;97673.47;;;16.67;100.00
49311;BME280;35177;45.900;5.946;2022-08-01T01:10:09;97665.88;;;16.27;100.00
49311;BME280;35177;45.900;5.946;2022-08-01T01:18:29;97678.00;;;16.31;100.00
49311;BME280;35177;45.900;5.946;2022-08-01T01:21:00;97674.47;;;16.34;100.00
49311;BME280;35177;45.900;5.946;2022-08-01T01:29:17;97678.94;;;15.86;100.00
49311;BME280;35177;45.900;5.946;2022-08-01T01:31:57;97666.69;;;15.90;100.00
49311;BME280;35177;45.900;5.946;2022-08-01T01:34:26;97673.69;;;15.97;100.00
49311;BME280;35177;45.900;5.946;2022-08-01T01:36:54;97678.13;;;16.22;100.00
49311;BME280;35177;45.900;5.946;2022-08-01T01:39:24;97671.78;;;16.26;100.00
49311;BME280;35177;45.900;5.946;2022-08-01T01:41:51;97671.34;;;16.36;100.00
49311;BME280;35177;45.900;5.946;2022-08-01T01:44:18;97670.38;;;16.32;100.00
49311;BME280;35177;45.900;5.946;2022-08-01T01:46:44;97676.59;;;16.25;100.00
49311;BME280;35177;45.900;5.946;2022-08-01T01:49:11;97683.13;;;16.04;100.00
49311;BME280;35177;45.900;5.946;2022-08-01T01:51:38;97676.81;;;15.95;100.00
49311;BME280;35177;45.900;5.946;2022-08-01T01:54:08;97681.97;;;16.18;100.00
49311;BME280;35177;45.900;5.946;2022-08-01T01:56:35;97684.16;;;16.12;100.00
49311;BME280;35177;45.900;5.946;2022-08-01T01:59:18;97677.66;;;15.96;100.00
49311;BME280;35177;45.900;5.946;2022-08-01T02:01:47;97674.25;;;15.90;100.00
49311;BME280;35177;45.900;5.946;2022-08-01T02:04:15;97681.19;;;15.71;100.00
49311;BME280;35177;45.900;5.946;2022-08-01T02:06:42;97687.50;;;15.68;100.00
49311;BME280;35177;45.900;5.946;2022-08-01T02:09:08;97689.50;;;15.34;100.00
49311;BME280;35177;45.900;5.946;2022-08-01T02:11:36;97685.97;;;15.25;100.00
49311;BME280;35177;45.900;5.946;2022-08-01T02:14:04;97691.00;;;15.19;100.00
49311;BME280;35177;45.900;5.946;2022-08-01T02:16:35;97691.44;;;15.21;100.00
49311;BME280;35177;45.900;5.946;2022-08-01T02:19:02;97691.78;;;15.20;100.00
49311;BME280;35177;45.900;5.946;2022-08-01T02:22:00;97684.63;;;15.43;100.00
49311;BME280;35177;45.900;5.946;2022-08-01T02:24:52;97692.81;;;15.49;100.00
49311;BME280;35177;45.900;5.946;2022-08-01T02:27:30;97690.19;;;15.31;100.00
49311;BME280;35177;45.900;5.946;2022-08-01T02:30:02;97680.50;;;15.29;100.00
49311;BME280;35177;45.900;5.946;2022-08-01T02:32:46;97686.94;;;15.29;100.00
49311;BME280;35177;45.900;5.946;2022-08-01T02:35:14;97683.28;;;15.50;100.00
49311;BME280;35177;45.900;5.946;2022-08-01T02:37:45;97678.25;;;15.55;100.00
49311;BME280;35177;45.900;5.946;2022-08-01T02:40:13;97674.53;;;15.51;100.00
49311;BME280;35177;45.900;5.946;2022-08-01T02:42:44;97683.97;;;15.47;100.00
49311;BME280;35177;45.900;5.946;2022-08-01T02:45:12;97682.81;;;15.14;100.00
49311;BME280;35177;45.900;5.946;2022-08-01T02:47:40;97683.09;;;15.00;100.00
49311;BME280;35177;45.900;5.946;2022-08-01T02:50:08;97680.19;;;15.30;100.00
49311;BME280;35177;45.900;5.946;2022-08-01T02:52:37;97682.19;;;15.08;100.00
49311;BME280;35177;45.900;5.946;2022-08-01T02:55:05;97681.44;;;15.20;100.00
49311;BME280;35177;45.900;5.946;2022-08-01T02:57:32;97678.88;;;15.27;100.00
49311;BME280;35177;45.900;5.946;2022-08-01T02:59:59;97677.84;;;14.99;100.00
49311;BME280;35177;45.900;5.946;2022-08-01T03:02:27;97681.25;;;15.04;100.00
49311;BME280;35177;45.900;5.946;2022-08-01T03:04:54;97681.97;;;15.14;100.00
49311;BME280;35177;45.900;5.946;2022-08-01T03:07:21;97679.59;;;14.61;100.00
49311;BME280;35177;45.900;5.946;2022-08-01T03:09:49;97681.19;;;14.71;100.00
49311;BME280;35177;45.900;5.946;2022-08-01T03:12:20;97678.94;;;14.64;100.00
49311;BME280;35177;45.900;5.946;2022-08-01T03:14:50;97676.50;;;14.62;100.00
49311;BME280;35177;45.900;5.946;2022-08-01T03:17:18;97682.47;;;14.52;100.00
49311;BME280;35177;45.900;5.946;2022-08-01T03:19:46;97678.66;;;14.57;100.00
49311;BME280;35177;45.900;5.946;2022-08-01T03:22:13;97670.75;;;14.59;100.00
49311;BME280;35177;45.900;5.946;2022-08-01T03:24:42;97670.19;;;14.44;100.00
49311;BME280;35177;45.900;5.946;2022-08-01T03:27:09;97674.50;;;14.42;100.00
49311;BME280;35177;45.900;5.946;2022-08-01T03:29:37;97677.00;;;14.56;100.00
49311;BME280;35177;45.900;5.946;2022-08-01T03:32:05;97672.06;;;14.61;100.00
49311;BME280;35177;45.900;5.946;2022-08-01T03:34:31;97678.75;;;14.69;100.00
49311;BME280;35177;45.900;5.946;2022-08-01T03:37:05;97674.78;;;14.19;100.00
49311;BME280;35177;45.900;5.946;2022-08-01T03:39:36;97681.06;;;14.16;100.00
49311;BME280;35177;45.900;5.946;2022-08-01T03:42:08;97672.78;;;14.28;100.00
49311;BME280;35177;45.900;5.946;2022-08-01T03:44:36;97682.50;;;14.22;100.00
49311;BME280;35177;45.900;5.946;2022-08-01T03:47:08;97682.56;;;14.13;100.00
49311;BME280;35177;45.900;5.946;2022-08-01T03:49:41;97680.56;;;14.14;100.00
49311;BME280;35177;45.900;5.946;2022-08-01T03:52:08;97686.84;;;14.11;100.00
49311;BME280;35177;45.900;5.946;2022-08-01T03:54:42;97678.63;;;14.06;100.00
49311;BME280;35177;45.900;5.946;2022-08-01T03:57:08;97686.16;;;14.14;100.00
49311;BME280;35177;45.900;5.946;2022-08-01T03:59:35;97685.25;;;14.01;100.00
49311;BME280;35177;45.900;5.946;2022-08-01T04:02:02;97693.56;;;14.10;100.00
49311;BME280;35177;45.900;5.946;2022-08-01T04:04:29;97689.72;;;14.23;100.00
49311;BME280;35177;45.900;5.946;2022-08-01T04:06:55;97689.44;;;14.16;100.00
49311;BME280;35177;45.900;5.946;2022-08-01T04:09:21;97687.00;;;14.14;100.00
49311;BME280;35177;45.900;5.946;2022-08-01T04:11:48;97687.44;;;14.17;100.00
49311;BME280;35177;45.900;5.946;2022-08-01T04:14:14;97691.69;;;14.23;100.00
49311;BME280;35177;45.900;5.946;2022-08-01T04:16:39;97695.53;;;14.09;100.00
49311;BME280;35177;45.900;5.946;2022-08-01T04:19:05;97699.72;;;14.24;100.00
49311;BME280;35177;45.900;5.946;2022-08-01T04:21:35;97693.88;;;14.08;100.00
49311;BME280;35177;45.900;5.946;2022-08-01T04:24:05;97690.84;;;13.92;100.00
49311;BME280;35177;45.900;5.946;2022-08-01T04:26:34;97695.53;;;14.09;100.00
49311;BME280;35177;45.900;5.946;2022-08-01T04:29:02;97701.00;;;13.97;100.00
49311;BME280;35177;45.900;5.946;2022-08-01T04:31:31;97698.56;;;13.95;100.00
49311;BME280;35177;45.900;5.946;2022-08-01T04:33:58;97708.28;;;13.89;100.00
49311;BME280;35177;45.900;5.946;2022-08-01T04:36:26;97710.03;;;14.03;100.00
49311;BME280;35177;45.900;5.946;2022-08-01T04:38:56;97706.03;;;14.12;100.00
49311;BME280;35177;45.900;5.946;2022-08-01T04:41:23;97704.88;;;14.13;100.00
49311;BME280;35177;45.900;5.946;2022-08-01T04:43:50;97704.31;;;14.50;100.00
49311;BME280;35177;45.900;5.946;2022-08-01T04:46:17;97715.16;;;14.52;100.00
49311;BME280;35177;45.900;5.946;2022-08-01T04:48:44;97699.66;;;14.84;100.00
49311;BME280;35177;45.900;5.946;2022-08-01T04:51:15;97702.88;;;14.95;100.00
49311;BME280;35177;45.900;5.946;2022-08-01T04:53:42;97717.25;;;15.06;100.00
49311;BME280;35177;45.900;5.946;2022-08-01T04:56:08;97716.38;;;15.48;100.00
49311;BME280;35177;45.900;5.946;2022-08-01T04:58:34;97711.75;;;15.77;100.00
49311;BME280;35177;45.900;5.946;2022-08-01T05:00:59;97717.47;;;15.80;100.00
49311;BME280;35177;45.900;5.946;2022-08-01T05:03:25;97715.19;;;16.19;100.00
49311;BME280;35177;45.900;5.946;2022-08-01T05:05:50;97717.06;;;16.40;100.00
49311;BME280;35177;45.900;5.946;2022-08-01T05:08:16;97706.78;;;16.57;100.00
49311;BME280;35177;45.900;5.946;2022-08-01T05:10:41;97712.97;;;16.50;100.00
49311;BME280;35177;45.900;5.946;2022-08-01T05:13:08;97713.66;;;16.72;100.00
49311;BME280;35177;45.900;5.946;2022-08-01T05:15:35;97706.59;;;16.90;100.00
49311;BME280;35177;45.900;5.946;2022-08-01T05:18:03;97703.28;;;17.13;100.00
49311;BME280;35177;45.900;5.946;2022-08-01T05:20:29;97703.22;;;17.25;100.00
49311;BME280;35177;45.900;5.946;2022-08-01T05:22:54;97705.06;;;17.33;100.00
49311;BME280;35177;45.900;5.946;2022-08-01T05:25:20;97706.84;;;17.54;100.00
49311;BME280;35177;45.900;5.946;2022-08-01T05:27:46;97704.09;;;17.42;100.00
49311;BME280;35177;45.900;5.946;2022-08-01T05:30:12;97703.16;;;18.46;100.00
49311;BME280;35177;45.900;5.946;2022-08-01T05:32:38;97698.94;;;18.72;100.00
49311;BME280;35177;45.900;5.946;2022-08-01T05:35:04;97695.91;;;18.81;100.00
49311;BME280;35177;45.900;5.946;2022-08-01T05:37:30;97699.81;;;18.76;100.00
49311;BME280;35177;45.900;5.946;2022-08-01T05:39:55;97700.09;;;18.71;100.00
49311;BME280;35177;45.900;5.946;2022-08-01T05:42:21;97705.94;;;18.98;100.00
49311;BME280;35177;45.900;5.946;2022-08-01T05:44:46;97710.69;;;19.13;100.00
49311;BME280;35177;45.900;5.946;2022-08-01T05:47:13;97700.88;;;19.46;100.00
49311;BME280;35177;45.900;5.946;2022-08-01T05:49:39;97706.09;;;19.67;100.00
49311;BME280;35177;45.900;5.946;2022-08-01T05:52:04;97708.56;;;19.69;100.00
49311;BME280;35177;45.900;5.946;2022-08-01T05:54:30;97710.97;;;19.27;100.00
49311;BME280;35177;45.900;5.946;2022-08-01T05:56:56;97708.50;;;19.65;100.00
49311;BME280;35177;45.900;5.946;2022-08-01T05:59:25;97719.56;;;19.15;100.00
49311;BME280;35177;45.900;5.946;2022-08-01T06:01:51;97706.06;;;19.05;100.00
49311;BME280;35177;45.900;5.946;2022-08-01T06:04:16;97708.41;;;19.19;100.00
49311;BME280;35177;45.900;5.946;2022-08-01T06:06:42;97714.50;;;19.44;100.00
49311;BME280;35177;45.900;5.946;2022-08-01T06:09:07;97717.50;;;19.32;100.00
49311;BME280;35177;45.900;5.946;2022-08-01T06:11:33;97716.38;;;19.36;100.00
49311;BME280;35177;45.900;5.946;2022-08-01T06:13:58;97713.25;;;19.41;100.00
49311;BME280;35177;45.900;5.946;2022-08-01T06:16:24;97713.78;;;19.47;100.00
49311;BME280;35177;45.900;5.946;2022-08-01T06:18:49;97718.41;;;19.16;100.00
49311;BME280;35177;45.900;5.946;2022-08-01T06:21:15;97715.56;;;19.36;100.00
49311;BME280;35177;45.900;5.946;2022-08-01T06:23:40;97719.72;;;19.42;100.00
49311;BME280;35177;45.900;5.946;2022-08-01T06:26:07;97712.91;;;19.23;100.00
49311;BME280;35177;45.900;5.946;2022-08-01T06:28:33;97714.81;;;19.19;100.00
49311;BME280;35177;45.900;5.946;2022-08-01T06:30:59;97721.13;;;19.32;100.00
49311;BME280;35177;45.900;5.946;2022-08-01T06:33:25;97724.97;;;19.43;100.00
49311;BME280;35177;45.900;5.946;2022-08-01T06:35:51;97722.53;;;19.42;100.00
49311;BME280;35177;45.900;5.946;2022-08-01T06:38:16;97720.44;;;19.58;100.00
49311;BME280;35177;45.900;5.946;2022-08-01T06:40:42;97713.13;;;19.77;100.00
49311;BME280;35177;45.900;5.946;2022-08-01T06:43:07;97712.56;;;19.87;100.00
49311;BME280;35177;45.900;5.946;2022-08-01T06:45:33;97711.47;;;19.96;100.00
49311;BME280;35177;45.900;5.946;2022-08-01T06:47:58;97718.69;;;20.16;100.00
49311;BME280;35177;45.900;5.946;2022-08-01T06:50:24;97716.19;;;20.11;100.00
49311;BME280;35177;45.900;5.946;2022-08-01T06:52:49;97707.34;;;20.13;100.00
49311;BME280;35177;45.900;5.946;2022-08-01T06:55:15;97712.59;;;20.14;100.00
49311;BME280;35177;45.900;5.946;2022-08-01T06:57:48;97709.44;;;19.93;100.00
49311;BME280;35177;45.900;5.946;2022-08-01T07:00:15;97713.03;;;20.16;100.00
49311;BME280;35177;45.900;5.946;2022-08-01T07:02:44;97710.25;;;20.43;100.00
49311;BME280;35177;45.900;5.946;2022-08-01T07:05:09;97703.81;;;20.43;100.00
49311;BME280;35177;45.900;5.946;2022-08-01T07:07:35;97711.44;;;20.42;100.00
49311;BME280;35177;45.900;5.946;2022-08-01T07:10:00;97704.56;;;20.39;100.00
49311;BME280;35177;45.900;5.946;2022-08-01T07:12:26;97704.19;;;20.41;100.00
49311;BME280;35177;45.900;5.946;2022-08-01T07:14:51;97705.47;;;20.47;100.00
49311;BME280;35177;45.900;5.946;2022-08-01T07:17:17;97704.41;;;20.55;100.00
49311;BME280;35177;45.900;5.946;2022-08-01T07:19:43;97702.50;;;20.63;100.00
49311;BME280;35177;45.900;5.946;2022-08-01T07:22:08;97701.59;;;20.82;100.00
49311;BME280;35177;45.900;5.946;2022-08-01T07:24:33;97698.28;;;20.77;100.00
49311;BME280;35177;45.900;5.946;2022-08-01T07:26:59;97696.88;;;20.90;100.00
49311;BME280;35177;45.900;5.946;2022-08-01T07:29:25;97695.78;;;20.98;100.00
49311;BME280;35177;45.900;5.946;2022-08-01T07:31:52;97698.09;;;21.23;100.00
49311;BME280;35177;45.900;5.946;2022-08-01T07:34:18;97691.97;;;21.14;100.00
49311;BME280;35177;45.900;5.946;2022-08-01T07:36:43;97693.34;;;21.31;100.00
49311;BME280;35177;45.900;5.946;2022-08-01T07:39:09;97697.78;;;21.62;100.00
49311;BME280;35177;45.900;5.946;2022-08-01T07:41:34;97688.84;;;21.57;100.00
49311;BME280;35177;45.900;5.946;2022-08-01T07:44:00;97687.19;;;21.56;100.00
49311;BME280;35177;45.900;5.946;2022-08-01T07:46:25;97688.84;;;21.57;100.00
49311;BME280;35177;45.900;5.946;2022-08-01T07:48:51;97691.31;;;22.03;98.66
49311;BME280;35177;45.900;5.946;2022-08-01T07:51:17;97682.97;;;22.18;96.34
49311;BME280;35177;45.900;5.946;2022-08-01T07:53:43;97687.25;;;22.01;94.75
49311;BME280;35177;45.900;5.946;2022-08-01T07:56:08;97683.91;;;21.88;93.75
49311;BME280;35177;45.900;5.946;2022-08-01T07:58:35;97685.22;;;21.97;98.51
49311;BME280;35177;45.900;5.946;2022-08-01T08:01:00;97677.66;;;22.09;95.64
49311;BME280;35177;45.900;5.946;2022-08-01T08:03:26;97676.47;;;22.13;91.87
49311;BME280;35177;45.900;5.946;2022-08-01T08:05:52;97676.84;;;22.12;91.81
49311;BME280;35177;45.900;5.946;2022-08-01T08:08:18;97679.34;;;22.21;88.98
49311;BME280;35177;45.900;5.946;2022-08-01T08:10:44;97667.25;;;22.24;89.69
49311;BME280;35177;45.900;5.946;2022-08-01T08:13:10;97663.97;;;22.70;87.99
49311;BME280;35177;45.900;5.946;2022-08-01T08:15:35;97664.03;;;22.81;85.72
49311;BME280;35177;45.900;5.946;2022-08-01T08:18:02;97666.88;;;22.81;85.36
49311;BME280;35177;45.900;5.946;2022-08-01T08:20:28;97658.41;;;22.88;84.49
49311;BME280;35177;45.900;5.946;2022-08-01T08:22:55;97661.19;;;22.85;84.13
49311;BME280;35177;45.900;5.946;2022-08-01T08:25:20;97659.97;;;22.82;85.85
49311;BME280;35177;45.900;5.946;2022-08-01T08:27:47;97656.06;;;23.08;87.62
49311;BME280;35177;45.900;5.946;2022-08-01T08:30:13;97648.91;;;23.25;88.33
49311;BME280;35177;45.900;5.946;2022-08-01T08:32:39;97655.78;;;23.28;86.57
49311;BME280;35177;45.900;5.946;2022-08-01T08:35:05;97654.56;;;23.29;82.26
49311;BME280;35177;45.900;5.946;2022-08-01T08:37:31;97651.75;;;23.29;79.45
49311;BME280;35177;45.900;5.946;2022-08-01T08:39:57;97647.31;;;23.46;78.85
49311;BME280;35177;45.900;5.946;2022-08-01T08:42:23;97644.09;;;23.62;79.98
49311;BME280;35177;45.900;5.946;2022-08-01T08:44:48;97648.97;;;23.54;80.90
49311;BME280;35177;45.900;5.946;2022-08-01T08:47:14;97640.06;;;23.67;80.68
49311;BME280;35177;45.900;5.946;2022-08-01T08:49:42;97642.53;;;23.90;76.67
49311;BME280;35177;45.900;5.946;2022-08-01T08:52:09;97642.16;;;24.13;74.07
49311;BME280;35177;45.900;5.946;2022-08-01T08:54:37;97647.84;;;24.13;76.07
49311;BME280;35177;45.900;5.946;2022-08-01T08:57:04;97649.03;;;24.01;74.13
49311;BME280;35177;45.900;5.946;2022-08-01T08:59:30;97647.03;;;24.16;69.58
49311;BME280;35177;45.900;5.946;2022-08-01T09:01:57;97649.84;;;24.31;72.39
49311;BME280;35177;45.900;5.946;2022-08-01T09:04:24;97642.13;;;24.53;73.39
49311;BME280;35177;45.900;5.946;2022-08-01T09:06:51;97631.97;;;24.74;72.74
49311;BME280;35177;45.900;5.946;2022-08-01T09:09:17;97632.34;;;24.94;67.67
49311;BME280;35177;45.900;5.946;2022-08-01T09:11:43;97628.22;;;25.06;67.51
49311;BME280;35177;45.900;5.946;2022-08-01T09:14:16;97624.94;;;25.85;64.90
49311;BME280;35177;45.900;5.946;2022-08-01T09:17:01;97621.31;;;26.34;56.67
49311;BME280;35177;45.900;5.946;2022-08-01T09:19:35;97611.84;;;26.86;54.65
49311;BME280;35177;45.900;5.946;2022-08-01T09:22:03;97608.50;;;26.56;53.80
49311;BME280;35177;45.900;5.946;2022-08-01T09:24:30;97613.16;;;26.36;49.36
49311;BME280;35177;45.900;5.946;2022-08-01T09:26:58;97613.81;;;26.51;50.60
49311;BME280;35177;45.900;5.946;2022-08-01T09:29:27;97613.44;;;27.21;50.99
49311;BME280;35177;45.900;5.946;2022-08-01T09:31:53;97610.00;;;27.65;43.73
49311;BME280;35177;45.900;5.946;2022-08-01T09:34:29;97615.22;;;27.70;46.12
49311;BME280;35177;45.900;5.946;2022-08-01T09:37:00;97618.59;;;27.88;41.85
49311;BME280;35177;45.900;5.946;2022-08-01T09:39:28;97612.28;;;28.01;39.53
49311;BME280;35177;45.900;5.946;2022-08-01T09:41:55;97607.19;;;28.40;38.08
49311;BME280;35177;45.900;5.946;2022-08-01T09:44:39;97610.78;;;28.88;37.68
49311;BME280;35177;45.900;5.946;2022-08-01T09:47:06;97614.28;;;28.95;36.95
49311;BME280;35177;45.900;5.946;2022-08-01T09:49:34;97606.66;;;29.49;35.80
49311;BME280;35177;45.900;5.946;2022-08-01T09:52:14;97610.06;;;29.60;34.89
49311;BME280;35177;45.900;5.946;2022-08-01T09:54:41;97600.22;;;30.15;34.91
49311;BME280;35177;45.900;5.946;2022-08-01T09:57:13;97602.53;;;30.82;34.64
49311;BME280;35177;45.900;5.946;2022-08-01T09:59:46;97607.75;;;30.71;33.35
49311;BME280;35177;45.900;5.946;2022-08-01T10:02:13;97604.84;;;30.87;34.56
49311;BME280;35177;45.900;5.946;2022-08-01T10:04:50;97598.13;;;31.07;33.73
49311;BME280;35177;45.900;5.946;2022-08-01T10:07:17;97590.66;;;31.26;32.60
49311;BME280;35177;45.900;5.946;2022-08-01T10:09:43;97595.84;;;31.57;32.90
49311;BME280;35177;45.900;5.946;2022-08-01T10:12:12;97589.75;;;32.07;32.21
49311;BME280;35177;45.900;5.946;2022-08-01T10:14:38;97598.97;;;31.76;31.56
49311;BME280;35177;45.900;5.946;2022-08-01T10:17:07;97593.91;;;31.54;32.54
49311;BME280;35177;45.900;5.946;2022-08-01T10:19:35;97595.25;;;31.36;31.46
49311;BME280;35177;45.900;5.946;2022-08-01T10:22:04;97583.00;;;32.13;31.42
49311;BME280;35177;45.900;5.946;2022-08-01T10:24:37;97585.19;;;32.92;28.46
49311;BME280;35177;45.900;5.946;2022-08-01T10:27:06;97574.78;;;32.73;28.02
49311;BME280;35177;45.900;5.946;2022-08-01T10:29:56;97575.59;;;32.73;27.46
49311;BME280;35177;45.900;5.946;2022-08-01T10:32:25;97568.28;;;33.26;26.77
49311;BME280;35177;45.900;5.946;2022-08-01T10:34:52;97573.53;;;33.18;27.69
49311;BME280;35177;45.900;5.946;2022-08-01T10:37:17;97568.41;;;32.91;27.04
49311;BME280;35177;45.900;5.946;2022-08-01T10:39:43;97562.16;;;33.37;26.47
49311;BME280;35177;45.900;5.946;2022-08-01T10:42:11;97555.75;;;33.10;25.79
49311;BME280;35177;45.900;5.946;2022-08-01T10:44:37;97559.09;;;33.31;25.95
49311;BME280;35177;45.900;5.946;2022-08-01T10:47:08;97548.53;;;33.69;26.25
49311;BME280;35177;45.900;5.946;2022-08-01T10:49:40;97545.94;;;33.93;25.49
49311;BME280;35177;45.900;5.946;2022-08-01T10:52:14;97552.53;;;33.30;26.46
49311;BME280;35177;45.900;5.946;2022-08-01T10:54:40;97546.84;;;33.40;25.88
49311;BME280;35177;45.900;5.946;2022-08-01T10:57:06;97547.84;;;33.24;25.66
49311;BME280;35177;45.900;5.946;2022-08-01T10:59:32;97545.75;;;33.87;25.19
49311;BME280;35177;45.900;5.946;2022-08-01T11:02:03;97546.78;;;33.71;24.54
49311;BME280;35177;45.900;5.946;2022-08-01T11:04:33;97535.72;;;32.40;25.19
49311;BME280;35177;45.900;5.946;2022-08-01T11:07:05;97541.03;;;33.30;25.71
49311;BME280;35177;45.900;5.946;2022-08-01T11:09:45;97532.81;;;33.51;25.80
49311;BME280;35177;45.900;5.946;2022-08-01T11:12:16;97539.75;;;33.63;23.93
49311;BME280;35177;45.900;5.946;2022-08-01T11:17:35;97507.47;;;34.55;21.99
49311;BME280;35177;45.900;5.946;2022-08-01T11:20:12;97504.53;;;34.27;22.37
49311;BME280;35177;45.900;5.946;2022-08-01T11:25:27;97490.34;;;35.22;22.51
49311;BME280;35177;45.900;5.946;2022-08-01T11:30:54;97491.84;;;33.06;23.80
49311;BME280;35177;45.900;5.946;2022-08-01T11:33:55;97497.63;;;33.88;24.53
49311;BME280;35177;45.900;5.946;2022-08-01T11:36:21;97482.00;;;34.45;23.85
49311;BME280;35177;45.900;5.946;2022-08-01T11:41:24;97485.50;;;34.30;22.86
49311;BME280;35177;45.900;5.946;2022-08-01T11:44:16;97484.06;;;34.35;24.05
49311;BME280;35177;45.900;5.946;2022-08-01T11:46:59;97484.31;;;33.40;23.40
49311;BME280;35177;45.900;5.946;2022-08-01T11:52:14;97474.19;;;33.67;23.42
49311;BME280;35177;45.900;5.946;2022-08-01T11:54:51;97472.09;;;33.58;23.35
49311;BME280;35177;45.900;5.946;2022-08-01T11:57:23;97465.69;;;34.41;23.13
49311;BME280;35177;45.900;5.946;2022-08-01T11:59:54;97476.69;;;34.15;23.42
49311;BME280;35177;45.900;5.946;2022-08-01T12:02:29;97469.97;;;34.46;24.24
49311;BME280;35177;45.900;5.946;2022-08-01T12:05:00;97463.91;;;34.63;24.20
49311;BME280;35177;45.900;5.946;2022-08-01T12:07:28;97468.09;;;34.43;23.31
49311;BME280;35177;45.900;5.946;2022-08-01T12:10:02;97449.78;;;34.09;23.34
49311;BME280;35177;45.900;5.946;2022-08-01T12:12:30;97454.47;;;34.53;22.05
49311;BME280;35177;45.900;5.946;2022-08-01T12:15:01;97446.06;;;34.83;23.82
49311;BME280;35177;45.900;5.946;2022-08-01T12:17:31;97445.66;;;34.47;23.36
49311;BME280;35177;45.900;5.946;2022-08-01T12:19:56;97447.25;;;34.11;22.78
49311;BME280;35177;45.900;5.946;2022-08-01T12:22:23;97441.31;;;33.96;22.59
49311;BME280;35177;45.900;5.946;2022-08-01T12:24:49;97436.38;;;34.06;23.00
49311;BME280;35177;45.900;5.946;2022-08-01T12:27:25;97431.50;;;34.96;23.43
49311;BME280;35177;45.900;5.946;2022-08-01T12:29:51;97431.41;;;34.34;22.23
49311;BME280;35177;45.900;5.946;2022-08-01T12:32:33;97426.66;;;35.02;23.24
49311;BME280;35177;45.900;5.946;2022-08-01T12:35:14;97430.38;;;34.93;22.64
49311;BME280;35177;45.900;5.946;2022-08-01T12:38:01;97429.97;;;34.39;23.22
49311;BME280;35177;45.900;5.946;2022-08-01T12:40:34;97426.13;;;34.23;23.91
49311;BME280;35177;45.900;5.946;2022-08-01T12:43:01;97432.53;;;33.40;26.53
49311;BME280;35177;45.900;5.946;2022-08-01T12:45:31;97416.81;;;34.28;24.10
49311;BME280;35177;45.900;5.946;2022-08-01T12:47:58;97421.72;;;34.74;23.71
49311;BME280;35177;45.900;5.946;2022-08-01T12:50:27;97430.75;;;34.67;23.76
49311;BME280;35177;45.900;5.946;2022-08-01T12:52:57;97413.22;;;34.80;24.00
49311;BME280;35177;45.900;5.946;2022-08-01T12:55:24;97425.88;;;35.35;25.22
49311;BME280;35177;45.900;5.946;2022-08-01T12:58:03;97425.13;;;35.59;23.77
49311;BME280;35177;45.900;5.946;2022-08-01T13:00:29;97422.59;;;35.51;23.81
49311;BME280;35177;45.900;5.946;2022-08-01T13:03:06;97425.06;;;35.44;24.87
49311;BME280;35177;45.900;5.946;2022-08-01T13:05:51;97425.22;;;34.97;24.23
49311;BME280;35177;45.900;5.946;2022-08-01T13:08:19;97417.25;;;35.26;23.89
49311;BME280;35177;45.900;5.946;2022-08-01T13:11:02;97419.34;;;35.59;24.09
49311;BME280;35177;45.900;5.946;2022-08-01T13:13:40;97415.31;;;35.90;24.28
49311;BME280;35177;45.900;5.946;2022-08-01T13:16:07;97411.38;;;35.53;23.82
49311;BME280;35177;45.900;5.946;2022-08-01T13:18:34;97410.13;;;35.36;25.14
49311;BME280;35177;45.900;5.946;2022-08-01T13:21:14;97411.84;;;35.18;24.11
49311;BME280;35177;45.900;5.946;2022-08-01T13:24:08;97407.84;;;35.16;24.08
49311;BME280;35177;45.900;5.946;2022-08-01T13:26:44;97401.56;;;35.17;23.57
49311;BME280;35177;45.900;5.946;2022-08-01T13:29:21;97410.94;;;35.36;24.90
49311;BME280;35177;45.900;5.946;2022-08-01T13:31:48;97411.88;;;35.09;23.44